« Back
NWS Peachtree City, Ga » Text Product » CSG Terminal Aerodrome Forecast


Printer-friendly Version
Current Version              Previous Versions:   1  2  3  4  5  6  7  8  9  

Terminal Aerodrome Forecast

785
FTUS42 KFFC 192333
TAFCSG
TAF
KCSG 192333Z 2000/2024 20004KT P6SM SKC
     FM201500 27006KT P6SM SKC
     FM201800 27008KT P6SM SKC=

USA.gov is the U.S. government's official web portal to all federal, state and local government web resources and services.